createdAt,value
2023-05-08T00:01:24.533Z,6.45
2023-05-08T00:04:27.158Z,6.43
2023-05-08T00:07:29.830Z,6.39
2023-05-08T00:10:32.454Z,6.36
2023-05-08T00:13:35.051Z,6.34
2023-05-08T00:16:37.617Z,6.34
2023-05-08T00:19:40.375Z,6.33
2023-05-08T00:22:43.051Z,6.31
2023-05-08T00:25:46.214Z,6.28
2023-05-08T00:28:48.783Z,6.26
2023-05-08T00:31:51.768Z,6.24
2023-05-08T00:34:54.415Z,6.22
2023-05-08T00:37:56.979Z,6.21
2023-05-08T00:41:00.158Z,6.20
2023-05-08T00:44:02.815Z,6.17
2023-05-08T00:47:06.578Z,6.14
2023-05-08T00:50:10.762Z,6.13
2023-05-08T00:53:13.393Z,6.13
2023-05-08T00:56:17.059Z,6.08
2023-05-08T00:59:21.367Z,6.10
2023-05-08T01:02:24.405Z,6.08
2023-05-08T01:05:28.466Z,6.06
2023-05-08T01:08:32.174Z,6.02
2023-05-08T01:11:44.615Z,5.99
2023-05-08T01:15:08.565Z,5.97
2023-05-08T01:18:23.336Z,5.95
2023-05-08T01:21:50.835Z,5.94
2023-05-08T01:25:28.764Z,5.88
2023-05-08T01:28:51.831Z,5.81
2023-05-08T01:32:30.156Z,5.77
2023-05-08T01:35:53.290Z,5.73
2023-05-08T01:39:04.956Z,5.67
2023-05-08T01:42:31.247Z,5.68
2023-05-08T01:45:45.046Z,5.63
2023-05-08T01:48:52.137Z,5.58
2023-05-08T01:52:03.377Z,5.55
2023-05-08T01:55:12.300Z,5.53
2023-05-08T01:58:15.166Z,5.48
2023-05-08T02:01:25.897Z,5.44
2023-05-08T02:04:29.826Z,5.41
2023-05-08T02:07:37.919Z,5.40
2023-05-08T02:10:42.482Z,5.39
2023-05-08T02:13:48.511Z,5.38
2023-05-08T02:16:52.612Z,5.37
2023-05-08T02:19:58.364Z,5.35
2023-05-08T02:23:02.375Z,5.35
2023-05-08T02:26:05.945Z,5.34
2023-05-08T02:29:09.453Z,5.34
2023-05-08T02:32:12.827Z,5.29
2023-05-08T02:35:19.267Z,5.23
2023-05-08T02:38:23.802Z,5.19
2023-05-08T02:41:30.871Z,5.16
2023-05-08T02:44:33.593Z,5.16
2023-05-08T02:47:54.165Z,5.15
2023-05-08T02:51:12.192Z,5.11
2023-05-08T02:54:24.686Z,5.08
2023-05-08T02:57:43.234Z,5.06
2023-05-08T03:01:14.032Z,5.04
2023-05-08T03:04:26.081Z,5.01
2023-05-08T03:07:31.129Z,4.96
2023-05-08T03:10:36.767Z,4.91
2023-05-08T03:13:42.501Z,4.90
2023-05-08T03:16:47.830Z,4.86
2023-05-08T03:19:56.162Z,4.82
2023-05-08T03:23:00.525Z,4.79
2023-05-08T03:26:04.815Z,4.74
2023-05-08T03:29:07.790Z,4.73
2023-05-08T03:32:12.073Z,4.75
2023-05-08T03:35:16.171Z,4.75
2023-05-08T03:38:18.833Z,4.73
2023-05-08T03:41:21.963Z,4.74
2023-05-08T03:44:26.149Z,4.75
2023-05-08T03:47:29.228Z,4.76
2023-05-08T03:50:34.459Z,4.62
2023-05-08T03:53:36.995Z,4.70
2023-05-08T03:56:39.610Z,4.71
2023-05-08T03:59:54.541Z,4.72
2023-05-08T04:03:19.215Z,4.75
2023-05-08T04:06:49.869Z,4.80
2023-05-08T04:10:20.996Z,4.80
2023-05-08T04:13:28.481Z,4.81
2023-05-08T04:16:35.673Z,4.84
2023-05-08T04:19:45.241Z,4.84
2023-05-08T04:22:51.264Z,4.82
2023-05-08T04:25:56.074Z,4.81
2023-05-08T04:28:59.316Z,4.81
2023-05-08T04:32:05.242Z,4.84
2023-05-08T04:35:08.530Z,4.84
2023-05-08T04:38:11.138Z,4.84
2023-05-08T04:41:14.591Z,4.87
2023-05-08T04:44:17.523Z,4.91
2023-05-08T04:47:20.439Z,4.94
2023-05-08T04:50:23.254Z,4.95
2023-05-08T04:53:25.821Z,4.99
2023-05-08T04:56:28.486Z,5.02
2023-05-08T04:59:31.023Z,5.07
2023-05-08T05:02:33.724Z,5.10
2023-05-08T05:05:38.689Z,5.11
2023-05-08T05:08:41.600Z,5.16
2023-05-08T05:11:44.188Z,5.21
2023-05-08T05:14:46.820Z,5.25
2023-05-08T05:17:49.528Z,5.28
2023-05-08T05:20:52.455Z,5.31
2023-05-08T05:23:54.969Z,5.35
2023-05-08T05:26:57.546Z,5.37
2023-05-08T05:30:00.153Z,5.42
2023-05-08T05:33:02.835Z,5.48
2023-05-08T05:36:05.826Z,5.53
2023-05-08T05:39:08.467Z,5.56
2023-05-08T05:42:11.187Z,5.60
2023-05-08T05:45:15.068Z,5.66
2023-05-08T05:48:17.841Z,5.72
2023-05-08T05:51:20.433Z,5.77
2023-05-08T05:54:23.065Z,5.75
2023-05-08T05:57:25.599Z,5.86
2023-05-08T06:00:28.247Z,5.93
2023-05-08T06:03:30.988Z,5.98
2023-05-08T06:06:33.674Z,6.02
2023-05-08T06:09:36.684Z,6.08
2023-05-08T06:12:39.344Z,6.14
2023-05-08T06:15:42.069Z,6.22
2023-05-08T06:18:44.728Z,6.31
2023-05-08T06:21:47.501Z,6.34
2023-05-08T06:24:53.627Z,6.39
2023-05-08T06:27:56.515Z,6.47
2023-05-08T06:30:59.116Z,6.51
2023-05-08T06:34:01.725Z,6.55
2023-05-08T06:37:04.398Z,6.58
2023-05-08T06:43:13.814Z,6.68
2023-05-08T06:46:16.552Z,6.74
2023-05-08T06:49:19.368Z,6.80
2023-05-08T06:52:22.007Z,6.86
2023-05-08T06:55:24.597Z,6.90
2023-05-08T06:58:27.259Z,6.96
2023-05-08T07:01:35.113Z,7.04
2023-05-08T07:04:37.775Z,7.12
2023-05-08T07:07:42.628Z,7.26
2023-05-08T07:10:45.796Z,7.51
2023-05-08T07:13:48.602Z,7.69
2023-05-08T07:16:51.131Z,7.77
2023-05-08T07:19:53.802Z,7.85
2023-05-08T07:22:56.429Z,7.91
2023-05-08T07:25:59.437Z,7.97
2023-05-08T07:29:01.952Z,8.03
2023-05-08T07:32:08.608Z,8.10
2023-05-08T07:35:13.027Z,8.21
2023-05-08T07:38:15.948Z,8.33
2023-05-08T07:41:18.520Z,8.40
2023-05-08T07:44:21.255Z,8.50
2023-05-08T07:47:23.915Z,8.59
2023-05-08T07:50:26.846Z,8.66
2023-05-08T07:53:30.566Z,8.74
2023-05-08T07:56:33.065Z,8.81
2023-05-08T07:59:35.617Z,8.88
2023-05-08T08:02:38.778Z,8.92
2023-05-08T08:05:42.163Z,8.99
2023-05-08T08:08:44.664Z,9.08
2023-05-08T08:11:47.396Z,9.20
2023-05-08T08:14:49.951Z,9.30
2023-05-08T08:17:52.478Z,9.34
2023-05-08T08:20:55.281Z,9.40
2023-05-08T08:23:59.074Z,9.46
2023-05-08T08:27:01.750Z,9.55
2023-05-08T08:30:16.296Z,9.64
2023-05-08T08:33:19.929Z,9.74
2023-05-08T08:36:22.529Z,9.82
2023-05-08T08:39:25.102Z,9.96
2023-05-08T08:42:28.057Z,10.04
2023-05-08T08:45:31.542Z,10.11
2023-05-08T08:48:35.152Z,10.20
2023-05-08T08:51:50.510Z,10.27
2023-05-08T08:54:55.326Z,10.30
2023-05-08T08:58:06.192Z,10.38
2023-05-08T09:01:15.235Z,10.45
2023-05-08T09:04:18.327Z,10.51
2023-05-08T09:07:21.148Z,10.51
2023-05-08T09:10:24.895Z,10.55
2023-05-08T09:13:29.204Z,10.63
2023-05-08T09:16:31.874Z,10.71
2023-05-08T09:19:35.042Z,10.79
2023-05-08T09:22:38.780Z,10.92
2023-05-08T09:25:45.676Z,10.95
2023-05-08T09:28:48.354Z,10.98
2023-05-08T09:31:52.933Z,11.05
2023-05-08T09:34:55.779Z,11.10
2023-05-08T09:37:58.406Z,11.16
2023-05-08T09:41:09.065Z,11.25
2023-05-08T09:44:11.645Z,11.32
2023-05-08T09:47:16.630Z,11.40
2023-05-08T09:50:19.390Z,11.48
2023-05-08T09:53:31.478Z,11.57
2023-05-08T09:56:39.865Z,11.62
2023-05-08T09:59:42.648Z,11.66
2023-05-08T10:03:02.748Z,11.68
2023-05-08T10:06:15.348Z,11.74
2023-05-08T10:09:17.844Z,11.79
2023-05-08T10:12:21.448Z,11.85
2023-05-08T10:15:33.951Z,11.96
2023-05-08T10:18:39.641Z,12.07
2023-05-08T10:21:46.823Z,12.15
2023-05-08T10:24:52.944Z,12.24
2023-05-08T10:28:10.084Z,12.30
2023-05-08T10:31:17.860Z,12.34
2023-05-08T10:34:23.996Z,12.43
2023-05-08T10:37:30.036Z,12.46
2023-05-08T10:40:32.641Z,12.49
2023-05-08T10:43:36.579Z,12.50
2023-05-08T10:46:52.258Z,12.52
2023-05-08T10:50:06.102Z,12.56
2023-05-08T10:53:25.074Z,12.61
2023-05-08T10:56:30.788Z,12.69
2023-05-08T10:59:37.004Z,12.77
2023-05-08T11:02:39.653Z,12.83
2023-05-08T11:05:47.350Z,12.89
2023-05-08T11:08:51.968Z,12.97
2023-05-08T11:12:07.111Z,13.05
2023-05-08T11:15:10.688Z,13.14
2023-05-08T11:18:17.597Z,13.26
2023-05-08T11:21:24.026Z,13.39
2023-05-08T11:24:36.070Z,13.60
2023-05-08T11:27:50.892Z,13.78
2023-05-08T11:30:57.982Z,13.86
2023-05-08T11:34:00.651Z,13.78
2023-05-08T11:37:03.517Z,13.69
2023-05-08T11:40:43.643Z,13.66
2023-05-08T11:44:02.270Z,13.56
2023-05-08T11:47:06.548Z,13.53
2023-05-08T11:50:10.782Z,13.55
2023-05-08T11:53:13.672Z,13.57
2023-05-08T11:56:16.508Z,13.61
2023-05-08T11:59:20.195Z,13.67
2023-05-08T12:02:40.157Z,13.77
2023-05-08T12:05:43.385Z,13.79
2023-05-08T12:08:45.998Z,13.87
2023-05-08T12:11:56.770Z,13.91
2023-05-08T12:14:59.429Z,14.00
2023-05-08T12:18:02.955Z,14.09
2023-05-08T12:21:05.665Z,14.15
2023-05-08T12:24:11.247Z,14.19
2023-05-08T12:27:14.115Z,14.24
2023-05-08T12:30:17.604Z,14.27
2023-05-08T12:33:21.339Z,14.38
2023-05-08T12:36:23.885Z,14.45
2023-05-08T12:39:26.405Z,14.55
2023-05-08T12:42:45.708Z,14.64
2023-05-08T12:45:54.420Z,14.72
2023-05-08T12:49:04.758Z,14.80
2023-05-08T12:52:09.060Z,14.85
2023-05-08T12:55:21.527Z,14.92
2023-05-08T12:58:34.736Z,14.94
2023-05-08T13:01:37.457Z,15.04
2023-05-08T13:04:40.446Z,15.17
2023-05-08T13:07:43.153Z,15.29
2023-05-08T13:10:56.474Z,15.39
2023-05-08T13:13:59.141Z,15.48
2023-05-08T13:17:01.978Z,15.65
2023-05-08T13:20:06.283Z,15.80
2023-05-08T13:23:10.558Z,15.93
2023-05-08T13:26:13.266Z,16.02
2023-05-08T13:29:16.047Z,16.15
2023-05-08T13:32:18.733Z,16.29
2023-05-08T13:35:22.524Z,16.41
2023-05-08T13:38:25.167Z,16.47
2023-05-08T13:41:27.715Z,16.52
2023-05-08T13:44:30.585Z,16.55
2023-05-08T13:47:33.822Z,16.59
2023-05-08T13:50:36.526Z,16.59
2023-05-08T13:53:39.299Z,16.62
2023-05-08T13:56:41.964Z,16.67
2023-05-08T13:59:44.526Z,16.76
2023-05-08T14:02:47.893Z,16.93
2023-05-08T14:05:52.106Z,17.07
2023-05-08T14:08:56.311Z,17.11
2023-05-08T14:11:59.882Z,17.14
2023-05-08T14:15:05.645Z,17.16
2023-05-08T14:18:08.252Z,17.21
2023-05-08T14:21:10.997Z,17.28
2023-05-08T14:24:13.622Z,17.40
2023-05-08T14:27:16.302Z,17.53
2023-05-08T14:30:18.858Z,17.60
2023-05-08T14:33:21.844Z,17.58
2023-05-08T14:36:24.559Z,17.57
2023-05-08T14:39:27.194Z,17.63
2023-05-08T14:42:29.870Z,17.74
2023-05-08T14:45:32.481Z,17.84
2023-05-08T14:48:35.066Z,17.92
2023-05-08T14:51:37.617Z,17.92
2023-05-08T14:54:40.387Z,17.94
2023-05-08T14:57:43.222Z,18.03
2023-05-08T15:00:46.230Z,18.14
2023-05-08T15:03:53.439Z,18.16
2023-05-08T15:06:56.269Z,18.17
2023-05-08T15:09:58.832Z,18.20
2023-05-08T15:13:01.635Z,18.24
2023-05-08T15:16:04.394Z,18.28
2023-05-08T15:19:09.607Z,18.25
2023-05-08T15:22:13.469Z,18.15
2023-05-08T15:25:16.565Z,18.09
2023-05-08T15:28:19.622Z,18.08
2023-05-08T15:31:22.259Z,18.10
2023-05-08T15:34:26.599Z,18.12
2023-05-08T15:37:31.995Z,18.08
2023-05-08T15:40:34.680Z,18.02
2023-05-08T15:43:38.442Z,17.98
2023-05-08T15:46:40.998Z,17.97
2023-05-08T15:49:43.707Z,17.99
2023-05-08T15:52:46.368Z,17.96
2023-05-08T15:55:49.077Z,17.95
2023-05-08T15:58:52.555Z,17.95
2023-05-08T16:01:55.211Z,17.96
2023-05-08T16:04:57.859Z,17.93
2023-05-08T16:08:00.515Z,17.88
2023-05-08T16:11:03.388Z,17.85
2023-05-08T16:14:06.051Z,17.85
2023-05-08T16:17:08.729Z,17.90
2023-05-08T16:20:11.905Z,17.79
2023-05-08T16:23:14.935Z,17.65
2023-05-08T16:26:17.517Z,17.61
2023-05-08T16:29:20.058Z,17.59
2023-05-08T16:32:22.998Z,17.56
2023-05-08T16:35:25.670Z,17.52
2023-05-08T16:38:28.297Z,17.49
2023-05-08T16:41:30.864Z,17.44
2023-05-08T16:44:33.658Z,17.43
2023-05-08T16:47:36.575Z,17.45
2023-05-08T16:50:39.362Z,17.47
2023-05-08T16:53:42.058Z,17.46
2023-05-08T16:56:44.694Z,17.42
2023-05-08T16:59:47.410Z,17.41
2023-05-08T17:02:50.187Z,17.30
2023-05-08T17:05:53.402Z,17.28
2023-05-08T17:08:55.901Z,17.26
2023-05-08T17:11:59.149Z,17.23
2023-05-08T17:15:02.314Z,17.22
2023-05-08T17:18:05.158Z,17.24
2023-05-08T17:21:07.783Z,17.26
2023-05-08T17:24:10.353Z,17.18
2023-05-08T17:27:13.285Z,17.12
2023-05-08T17:30:17.085Z,17.03
2023-05-08T17:33:21.082Z,16.92
2023-05-08T17:36:23.650Z,16.77
2023-05-08T17:39:26.349Z,16.70
2023-05-08T17:42:28.964Z,16.60
2023-05-08T17:45:32.184Z,16.51
2023-05-08T17:48:35.066Z,16.45
2023-05-08T17:51:37.778Z,16.42
2023-05-08T17:54:40.445Z,16.35
2023-05-08T17:57:43.217Z,16.26
2023-05-08T18:00:45.899Z,16.17
2023-05-08T18:03:48.610Z,16.08
2023-05-08T18:06:51.840Z,16.00
2023-05-08T18:09:54.415Z,15.91
2023-05-08T18:12:56.996Z,15.78
2023-05-08T18:15:59.574Z,15.70
2023-05-08T18:19:02.116Z,15.64
2023-05-08T18:22:04.666Z,15.53
2023-05-08T18:25:07.775Z,15.42
2023-05-08T18:28:10.791Z,15.29
2023-05-08T18:31:15.491Z,15.16
2023-05-08T18:34:18.366Z,15.04
2023-05-08T18:37:21.038Z,14.95
2023-05-08T18:40:23.578Z,14.82
2023-05-08T18:43:26.321Z,14.70
2023-05-08T18:46:29.004Z,14.57
2023-05-08T18:49:31.652Z,14.43
2023-05-08T18:52:34.452Z,14.33
2023-05-08T18:55:37.334Z,14.22
2023-05-08T18:58:39.969Z,14.10
2023-05-08T19:01:42.596Z,14.04
2023-05-08T19:04:45.202Z,13.97
2023-05-08T19:07:47.797Z,13.90
2023-05-08T19:10:50.400Z,13.87
2023-05-08T19:13:52.983Z,13.84
2023-05-08T19:16:58.303Z,13.78
2023-05-08T19:20:01.215Z,13.70
2023-05-08T19:23:03.773Z,13.61
2023-05-08T19:26:06.377Z,13.51
2023-05-08T19:29:08.945Z,13.44
2023-05-08T19:32:11.535Z,13.37
2023-05-08T19:35:14.141Z,13.29
2023-05-08T19:38:16.817Z,13.23
2023-05-08T19:41:19.556Z,13.18
2023-05-08T19:44:22.226Z,13.11
2023-05-08T19:47:24.797Z,13.02
2023-05-08T19:50:27.449Z,12.96
2023-05-08T19:53:30.046Z,12.89
2023-05-08T19:56:32.573Z,12.85
2023-05-08T19:59:35.349Z,12.80
2023-05-08T20:02:38.913Z,12.70
2023-05-08T20:05:41.789Z,12.63
2023-05-08T20:08:44.391Z,12.55
2023-05-08T20:11:47.207Z,12.49
2023-05-08T20:14:49.756Z,12.42
2023-05-08T20:17:52.981Z,12.37
2023-05-08T20:20:55.636Z,12.31
2023-05-08T20:23:59.409Z,12.26
2023-05-08T20:27:02.219Z,12.18
2023-05-08T20:30:06.442Z,12.14
2023-05-08T20:33:09.142Z,12.10
2023-05-08T20:36:11.826Z,12.05
2023-05-08T20:39:14.490Z,11.97
2023-05-08T20:42:17.161Z,11.92
2023-05-08T20:45:23.816Z,11.86
2023-05-08T20:48:26.414Z,11.80
2023-05-08T20:51:28.946Z,11.72
2023-05-08T20:54:37.499Z,11.61
2023-05-08T20:57:40.107Z,11.53
2023-05-08T21:00:42.681Z,11.49
2023-05-08T21:03:45.345Z,11.46
2023-05-08T21:06:48.960Z,11.41
2023-05-08T21:09:52.838Z,11.35
2023-05-08T21:12:55.428Z,11.29
2023-05-08T21:15:58.060Z,11.26
2023-05-08T21:19:01.695Z,11.19
2023-05-08T21:22:05.051Z,11.13
2023-05-08T21:25:09.809Z,11.06
2023-05-08T21:28:12.772Z,11.03
2023-05-08T21:31:15.607Z,11.02
2023-05-08T21:34:21.399Z,11.00
2023-05-08T21:37:24.173Z,10.98
2023-05-08T21:40:27.423Z,10.93
2023-05-08T21:43:29.979Z,10.89
2023-05-08T21:46:32.694Z,10.82
2023-05-08T21:49:35.340Z,10.76
2023-05-08T21:52:37.905Z,10.68
2023-05-08T21:55:40.456Z,10.66
2023-05-08T21:58:43.010Z,10.65
2023-05-08T22:01:45.736Z,10.64
2023-05-08T22:04:48.344Z,10.60
2023-05-08T22:07:51.130Z,10.54
2023-05-08T22:10:53.619Z,10.48
2023-05-08T22:13:56.263Z,10.42
2023-05-08T22:16:58.926Z,10.34
2023-05-08T22:20:01.510Z,10.29
2023-05-08T22:23:04.151Z,10.27
2023-05-08T22:26:07.115Z,10.24
2023-05-08T22:29:09.788Z,10.20
2023-05-08T22:32:12.671Z,10.16
2023-05-08T22:35:15.976Z,10.10
2023-05-08T22:38:18.701Z,10.03
2023-05-08T22:41:22.204Z,9.99
2023-05-08T22:44:24.826Z,9.94
2023-05-08T22:47:28.387Z,9.83
2023-05-08T22:50:31.210Z,9.71
2023-05-08T22:53:33.740Z,9.60
2023-05-08T22:56:38.276Z,9.51
2023-05-08T22:59:40.864Z,9.40
2023-05-08T23:02:43.495Z,9.33
2023-05-08T23:05:46.268Z,9.30
2023-05-08T23:08:48.934Z,9.26
2023-05-08T23:11:51.804Z,9.22
2023-05-08T23:14:54.467Z,9.19
2023-05-08T23:17:57.057Z,9.15
2023-05-08T23:21:07.829Z,9.10
2023-05-08T23:24:10.648Z,9.04
2023-05-08T23:27:13.219Z,8.97
2023-05-08T23:30:17.037Z,8.92
2023-05-08T23:33:19.668Z,8.91
2023-05-08T23:36:22.410Z,8.90
2023-05-08T23:39:25.308Z,8.89
2023-05-08T23:42:28.255Z,8.85
2023-05-08T23:45:30.943Z,8.78
2023-05-08T23:48:33.520Z,8.74
2023-05-08T23:51:36.172Z,8.70
2023-05-08T23:54:38.940Z,8.68
2023-05-08T23:57:41.677Z,8.65
